sensor_id;sensor_type;location;lat;lon;timestamp;pressure;altitude;pressure_sealevel;temperature;humidity
16094;BME280;8151;47.824;12.092;2023-02-20T00:02:26;97312.06;;;9.21;71.15
16094;BME280;8151;47.824;12.092;2023-02-20T00:04:56;97313.13;;;9.19;71.35
16094;BME280;8151;47.824;12.092;2023-02-20T00:07:26;97316.63;;;9.19;71.60
16094;BME280;8151;47.824;12.092;2023-02-20T00:09:54;97313.13;;;9.19;71.64
16094;BME280;8151;47.824;12.092;2023-02-20T00:12:23;97311.34;;;9.19;71.21
16094;BME280;8151;47.824;12.092;2023-02-20T00:14:51;97295.38;;;9.21;71.68
16094;BME280;8151;47.824;12.092;2023-02-20T00:17:20;97296.09;;;9.23;71.31
16094;BME280;8151;47.824;12.092;2023-02-20T00:19:48;97302.31;;;9.22;71.24
16094;BME280;8151;47.824;12.092;2023-02-20T00:22:16;97307.03;;;9.18;71.76
16094;BME280;8151;47.824;12.092;2023-02-20T00:24:46;97314.00;;;9.19;71.33
16094;BME280;8151;47.824;12.092;2023-02-20T00:27:15;97314.00;;;9.19;71.22
16094;BME280;8151;47.824;12.092;2023-02-20T00:29:44;97315.94;;;9.17;71.38
16094;BME280;8151;47.824;12.092;2023-02-20T00:32:13;97312.59;;;9.15;71.27
16094;BME280;8151;47.824;12.092;2023-02-20T00:34:41;97308.56;;;9.11;71.32
16094;BME280;8151;47.824;12.092;2023-02-20T00:37:09;97310.66;;;9.07;71.38
16094;BME280;8151;47.824;12.092;2023-02-20T00:39:38;97314.94;;;9.09;71.33
16094;BME280;8151;47.824;12.092;2023-02-20T00:42:07;97309.78;;;9.07;71.11
16094;BME280;8151;47.824;12.092;2023-02-20T00:44:36;97317.88;;;9.05;71.43
16094;BME280;8151;47.824;12.092;2023-02-20T00:47:05;97313.66;;;9.03;71.38
16094;BME280;8151;47.824;12.092;2023-02-20T00:49:33;97319.81;;;9.03;71.42
16094;BME280;8151;47.824;12.092;2023-02-20T00:52:01;97319.94;;;9.02;71.01
16094;BME280;8151;47.824;12.092;2023-02-20T00:54:30;97319.25;;;9.00;71.26
16094;BME280;8151;47.824;12.092;2023-02-20T00:56:58;97320.06;;;9.00;71.25
16094;BME280;8151;47.824;12.092;2023-02-20T00:59:28;97315.59;;;9.01;71.30
16094;BME280;8151;47.824;12.092;2023-02-20T01:01:56;97314.53;;;9.03;70.99
16094;BME280;8151;47.824;12.092;2023-02-20T01:04:25;97313.53;;;9.04;71.09
16094;BME280;8151;47.824;12.092;2023-02-20T01:06:54;97311.03;;;9.03;70.87
16094;BME280;8151;47.824;12.092;2023-02-20T01:09:23;97318.00;;;9.04;70.76
16094;BME280;8151;47.824;12.092;2023-02-20T01:11:53;97318.25;;;9.01;71.37
16094;BME280;8151;47.824;12.092;2023-02-20T01:14:21;97311.44;;;8.98;71.13
16094;BME280;8151;47.824;12.092;2023-02-20T01:16:52;97310.63;;;8.98;71.35
16094;BME280;8151;47.824;12.092;2023-02-20T01:19:22;97325.22;;;9.02;70.94
16094;BME280;8151;47.824;12.092;2023-02-20T01:21:51;97315.47;;;9.02;70.96
16094;BME280;8151;47.824;12.092;2023-02-20T01:24:19;97323.41;;;9.02;71.02
16094;BME280;8151;47.824;12.092;2023-02-20T01:26:48;97325.34;;;9.00;70.71
16094;BME280;8151;47.824;12.092;2023-02-20T01:29:16;97324.50;;;9.00;70.83
16094;BME280;8151;47.824;12.092;2023-02-20T01:31:48;97322.13;;;8.97;71.02
16094;BME280;8151;47.824;12.092;2023-02-20T01:34:20;97314.22;;;8.97;71.12
16094;BME280;8151;47.824;12.092;2023-02-20T01:36:49;97317.56;;;8.99;71.07
16094;BME280;8151;47.824;12.092;2023-02-20T01:39:22;97309.38;;;9.02;71.34
16094;BME280;8151;47.824;12.092;2023-02-20T01:41:53;97308.69;;;9.00;70.64
16094;BME280;8151;47.824;12.092;2023-02-20T01:44:25;97309.50;;;9.00;70.94
16094;BME280;8151;47.824;12.092;2023-02-20T01:46:54;97300.75;;;9.00;70.98
16094;BME280;8151;47.824;12.092;2023-02-20T01:49:29;97302.53;;;8.99;70.64
16094;BME280;8151;47.824;12.092;2023-02-20T01:52:04;97297.25;;;8.99;71.08
16094;BME280;8151;47.824;12.092;2023-02-20T01:54:38;97309.75;;;8.97;70.45
16094;BME280;8151;47.824;12.092;2023-02-20T01:57:11;97307.28;;;8.96;71.13
16094;BME280;8151;47.824;12.092;2023-02-20T01:59:41;97310.88;;;8.95;70.48
16094;BME280;8151;47.824;12.092;2023-02-20T02:02:11;97311.84;;;8.94;70.88
16094;BME280;8151;47.824;12.092;2023-02-20T02:04:51;97307.53;;;8.93;70.83
16094;BME280;8151;47.824;12.092;2023-02-20T02:07:19;97305.72;;;8.93;70.32
16094;BME280;8151;47.824;12.092;2023-02-20T02:09:52;97302.97;;;8.95;70.63
16094;BME280;8151;47.824;12.092;2023-02-20T02:12:23;97300.44;;;8.93;70.73
16094;BME280;8151;47.824;12.092;2023-02-20T02:14:51;97304.91;;;8.93;70.80
16094;BME280;8151;47.824;12.092;2023-02-20T02:17:37;97302.97;;;8.95;70.15
16094;BME280;8151;47.824;12.092;2023-02-20T02:26:53;97297.25;;;8.90;70.72
16094;BME280;8151;47.824;12.092;2023-02-20T02:29:44;97283.34;;;8.87;70.85
16094;BME280;8151;47.824;12.092;2023-02-20T02:33:03;97275.41;;;8.87;70.35
16094;BME280;8151;47.824;12.092;2023-02-20T02:38:41;97280.44;;;8.91;69.97
16094;BME280;8151;47.824;12.092;2023-02-20T02:41:19;97269.75;;;8.92;69.99
16094;BME280;8151;47.824;12.092;2023-02-20T02:43:53;97270.31;;;8.96;69.77
16094;BME280;8151;47.824;12.092;2023-02-20T02:46:27;97272.41;;;8.92;70.37
16094;BME280;8151;47.824;12.092;2023-02-20T02:49:02;97270.72;;;8.91;70.17
16094;BME280;8151;47.824;12.092;2023-02-20T02:51:35;97273.47;;;8.90;70.16
16094;BME280;8151;47.824;12.092;2023-02-20T02:54:08;97270.00;;;8.89;69.94
16094;BME280;8151;47.824;12.092;2023-02-20T02:56:39;97273.47;;;8.90;69.94
16094;BME280;8151;47.824;12.092;2023-02-20T02:59:10;97278.91;;;8.88;70.17
16094;BME280;8151;47.824;12.092;2023-02-20T03:01:44;97286.97;;;8.86;70.14
16094;BME280;8151;47.824;12.092;2023-02-20T03:04:15;97288.91;;;8.84;69.93
16094;BME280;8151;47.824;12.092;2023-02-20T03:06:51;97294.19;;;8.84;69.86
16094;BME280;8151;47.824;12.092;2023-02-20T03:09:24;97294.44;;;8.81;69.94
16094;BME280;8151;47.824;12.092;2023-02-20T03:11:55;97290.00;;;8.82;70.09
16094;BME280;8151;47.824;12.092;2023-02-20T03:14:27;97282.38;;;8.79;70.04
16094;BME280;8151;47.824;12.092;2023-02-20T03:17:21;97286.25;;;8.75;69.75
16094;BME280;8151;47.824;12.092;2023-02-20T03:19:55;97293.31;;;8.74;69.97
16094;BME280;8151;47.824;12.092;2023-02-20T03:22:27;97292.22;;;8.77;69.60
16094;BME280;8151;47.824;12.092;2023-02-20T03:25:03;97296.38;;;8.79;69.75
16094;BME280;8151;47.824;12.092;2023-02-20T03:27:39;97301.53;;;8.81;69.85
16094;BME280;8151;47.824;12.092;2023-02-20T03:30:14;97302.94;;;8.85;69.37
16094;BME280;8151;47.824;12.092;2023-02-20T03:32:48;97302.81;;;8.86;69.53
16094;BME280;8151;47.824;12.092;2023-02-20T03:35:37;97295.00;;;8.85;69.56
16094;BME280;8151;47.824;12.092;2023-02-20T03:38:25;97304.75;;;8.84;69.72
16094;BME280;8151;47.824;12.092;2023-02-20T03:41:15;97310.03;;;8.84;69.40
16094;BME280;8151;47.824;12.092;2023-02-20T03:44:03;97303.88;;;8.84;69.38
16094;BME280;8151;47.824;12.092;2023-02-20T03:46:35;97299.59;;;8.83;69.50
16094;BME280;8151;47.824;12.092;2023-02-20T03:49:09;97304.75;;;8.84;69.67
16094;BME280;8151;47.824;12.092;2023-02-20T03:51:56;97313.63;;;8.83;69.73
16094;BME280;8151;47.824;12.092;2023-02-20T03:54:25;97305.00;;;8.81;69.29
16094;BME280;8151;47.824;12.092;2023-02-20T03:56:58;97306.94;;;8.79;69.82
16094;BME280;8151;47.824;12.092;2023-02-20T03:59:32;97305.00;;;8.81;69.74
16094;BME280;8151;47.824;12.092;2023-02-20T04:02:05;97302.09;;;8.84;69.34
16094;BME280;8151;47.824;12.092;2023-02-20T04:04:38;97301.97;;;8.86;69.36
16094;BME280;8151;47.824;12.092;2023-02-20T04:07:12;97295.97;;;8.84;69.27
16094;BME280;8151;47.824;12.092;2023-02-20T04:09:45;97290.97;;;8.81;69.69
16094;BME280;8151;47.824;12.092;2023-02-20T04:12:18;97292.09;;;8.78;69.15
16094;BME280;8151;47.824;12.092;2023-02-20T04:14:48;97289.56;;;8.77;69.45
16094;BME280;8151;47.824;12.092;2023-02-20T04:17:21;97300.00;;;8.78;69.48
16094;BME280;8151;47.824;12.092;2023-02-20T04:19:51;97304.59;;;8.76;69.36
16094;BME280;8151;47.824;12.092;2023-02-20T04:22:22;97297.50;;;8.77;69.10
16094;BME280;8151;47.824;12.092;2023-02-20T04:24:54;97296.66;;;8.76;68.99
16094;BME280;8151;47.824;12.092;2023-02-20T04:27:25;97294.97;;;8.75;69.37
16094;BME280;8151;47.824;12.092;2023-02-20T04:29:54;97298.88;;;8.71;69.20
16094;BME280;8151;47.824;12.092;2023-02-20T04:32:22;97296.34;;;8.70;68.97
16094;BME280;8151;47.824;12.092;2023-02-20T04:34:54;97293.59;;;8.71;69.31
16094;BME280;8151;47.824;12.092;2023-02-20T04:37:23;97294.81;;;8.67;69.07
16094;BME280;8151;47.824;12.092;2023-02-20T04:39:51;97292.72;;;8.61;69.40
16094;BME280;8151;47.824;12.092;2023-02-20T04:42:20;97291.03;;;8.60;69.37
16094;BME280;8151;47.824;12.092;2023-02-20T04:44:50;97294.91;;;8.56;69.35
16094;BME280;8151;47.824;12.092;2023-02-20T04:47:18;97289.50;;;8.57;68.98
16094;BME280;8151;47.824;12.092;2023-02-20T04:49:46;97288.09;;;8.53;69.17
16094;BME280;8151;47.824;12.092;2023-02-20T04:52:15;97288.34;;;8.50;69.02
16094;BME280;8151;47.824;12.092;2023-02-20T04:54:43;97286.84;;;8.47;69.11
16094;BME280;8151;47.824;12.092;2023-02-20T04:57:11;97281.94;;;8.43;69.03
16094;BME280;8151;47.824;12.092;2023-02-20T04:59:40;97287.38;;;8.41;68.78
16094;BME280;8151;47.824;12.092;2023-02-20T05:02:10;97289.13;;;8.41;68.99
16094;BME280;8151;47.824;12.092;2023-02-20T05:04:39;97288.28;;;8.40;68.95
16094;BME280;8151;47.824;12.092;2023-02-20T05:07:07;97293.34;;;8.43;69.28
16094;BME280;8151;47.824;12.092;2023-02-20T05:09:36;97281.94;;;8.43;68.97
16094;BME280;8151;47.824;12.092;2023-02-20T05:12:04;97286.47;;;8.41;69.27
16094;BME280;8151;47.824;12.092;2023-02-20T05:14:33;97278.56;;;8.41;69.00
16094;BME280;8151;47.824;12.092;2023-02-20T05:17:02;97287.47;;;8.40;68.85
16094;BME280;8151;47.824;12.092;2023-02-20T05:19:31;97292.63;;;8.41;69.20
16094;BME280;8151;47.824;12.092;2023-02-20T05:22:00;97294.38;;;8.41;69.31
16094;BME280;8151;47.824;12.092;2023-02-20T05:24:46;97291.19;;;8.37;69.36
16094;BME280;8151;47.824;12.092;2023-02-20T05:27:18;97287.00;;;8.35;69.19
16094;BME280;8151;47.824;12.092;2023-02-20T05:29:47;97286.88;;;8.36;69.51
16094;BME280;8151;47.824;12.092;2023-02-20T05:32:17;97290.47;;;8.35;69.31
16094;BME280;8151;47.824;12.092;2023-02-20T05:34:47;97288.13;;;8.32;69.47
16094;BME280;8151;47.824;12.092;2023-02-20T05:37:17;97294.88;;;8.25;69.84
16094;BME280;8151;47.824;12.092;2023-02-20T05:39:46;97303.03;;;8.22;69.53
16094;BME280;8151;47.824;12.092;2023-02-20T05:42:16;97296.22;;;8.19;69.63
16094;BME280;8151;47.824;12.092;2023-02-20T05:44:44;97304.25;;;8.18;69.70
16094;BME280;8151;47.824;12.092;2023-02-20T05:47:12;97299.50;;;8.12;69.87
16094;BME280;8151;47.824;12.092;2023-02-20T05:49:41;97295.34;;;8.09;69.80
16094;BME280;8151;47.824;12.092;2023-02-20T05:52:11;97295.72;;;8.04;69.48
16094;BME280;8151;47.824;12.092;2023-02-20T05:54:40;97289.03;;;8.00;69.55
16094;BME280;8151;47.824;12.092;2023-02-20T05:57:10;97284.97;;;7.96;69.59
16094;BME280;8151;47.824;12.092;2023-02-20T05:59:38;97289.25;;;7.87;69.48
16094;BME280;8151;47.824;12.092;2023-02-20T06:02:07;97290.13;;;7.77;69.55
16094;BME280;8151;47.824;12.092;2023-02-20T06:04:35;97290.19;;;7.65;69.45
16094;BME280;8151;47.824;12.092;2023-02-20T06:07:06;97279.56;;;7.56;69.54
16094;BME280;8151;47.824;12.092;2023-02-20T06:09:42;97287.63;;;7.54;69.41
16094;BME280;8151;47.824;12.092;2023-02-20T06:12:11;97292.88;;;7.54;69.39
16094;BME280;8151;47.824;12.092;2023-02-20T06:14:40;97299.09;;;7.53;69.08
16094;BME280;8151;47.824;12.092;2023-02-20T06:17:09;97301.75;;;7.53;68.78
16094;BME280;8151;47.824;12.092;2023-02-20T06:19:37;97305.19;;;7.54;68.51
16094;BME280;8151;47.824;12.092;2023-02-20T06:22:15;97305.91;;;7.56;68.54
16094;BME280;8151;47.824;12.092;2023-02-20T06:24:45;97304.69;;;7.60;68.59
16094;BME280;8151;47.824;12.092;2023-02-20T06:27:14;97315.09;;;7.61;68.28
16094;BME280;8151;47.824;12.092;2023-02-20T06:29:46;97318.44;;;7.63;68.16
16094;BME280;8151;47.824;12.092;2023-02-20T06:32:15;97322.06;;;7.62;67.92
16094;BME280;8151;47.824;12.092;2023-02-20T06:34:44;97327.22;;;7.64;68.20
16094;BME280;8151;47.824;12.092;2023-02-20T06:37:12;97339.88;;;7.70;67.70
16094;BME280;8151;47.824;12.092;2023-02-20T06:39:42;97342.38;;;7.72;67.57
16094;BME280;8151;47.824;12.092;2023-02-20T06:42:13;97355.66;;;7.70;67.71
16094;BME280;8151;47.824;12.092;2023-02-20T06:44:41;97350.00;;;7.75;67.57
16094;BME280;8151;47.824;12.092;2023-02-20T06:47:10;97343.53;;;7.79;67.78
16094;BME280;8151;47.824;12.092;2023-02-20T06:49:40;97344.69;;;7.86;67.59
16094;BME280;8151;47.824;12.092;2023-02-20T06:52:10;97356.16;;;7.96;67.02
16094;BME280;8151;47.824;12.092;2023-02-20T06:54:39;97351.47;;;8.00;67.18
16094;BME280;8151;47.824;12.092;2023-02-20T06:57:08;97355.13;;;8.08;66.98
16094;BME280;8151;47.824;12.092;2023-02-20T06:59:37;97348.25;;;8.17;67.05
16094;BME280;8151;47.824;12.092;2023-02-20T07:02:09;97360.38;;;8.29;66.72
16094;BME280;8151;47.824;12.092;2023-02-20T07:04:38;97360.59;;;8.38;66.51
16094;BME280;8151;47.824;12.092;2023-02-20T07:07:06;97362.34;;;8.48;66.25
16094;BME280;8151;47.824;12.092;2023-02-20T07:09:38;97359.88;;;8.57;66.58
16094;BME280;8151;47.824;12.092;2023-02-20T07:12:08;97353.94;;;8.64;66.35
16094;BME280;8151;47.824;12.092;2023-02-20T07:14:38;97350.34;;;8.65;66.39
16094;BME280;8151;47.824;12.092;2023-02-20T07:17:06;97358.16;;;8.67;67.36
16094;BME280;8151;47.824;12.092;2023-02-20T07:19:37;97351.06;;;8.67;67.38
16094;BME280;8151;47.824;12.092;2023-02-20T07:22:05;97355.22;;;8.70;67.72
16094;BME280;8151;47.824;12.092;2023-02-20T07:24:34;97356.91;;;8.71;67.97
16094;BME280;8151;47.824;12.092;2023-02-20T07:27:03;97360.25;;;8.73;67.80
16094;BME280;8151;47.824;12.092;2023-02-20T07:29:31;97352.59;;;8.70;68.33
16094;BME280;8151;47.824;12.092;2023-02-20T07:32:01;97348.53;;;8.66;68.14
16094;BME280;8151;47.824;12.092;2023-02-20T07:34:30;97347.59;;;8.67;68.22
16094;BME280;8151;47.824;12.092;2023-02-20T07:36:58;97346.72;;;8.66;68.55
16094;BME280;8151;47.824;12.092;2023-02-20T07:39:27;97338.97;;;8.65;68.44
16094;BME280;8151;47.824;12.092;2023-02-20T07:41:56;97348.53;;;8.66;68.54
16094;BME280;8151;47.824;12.092;2023-02-20T07:44:25;97356.22;;;8.69;68.47
16094;BME280;8151;47.824;12.092;2023-02-20T07:46:53;97354.97;;;8.73;68.52
16094;BME280;8151;47.824;12.092;2023-02-20T07:49:23;97356.63;;;8.74;68.92
16094;BME280;8151;47.824;12.092;2023-02-20T07:51:51;97361.91;;;8.74;68.82
16094;BME280;8151;47.824;12.092;2023-02-20T07:54:19;97358.44;;;8.74;68.89
16094;BME280;8151;47.824;12.092;2023-02-20T07:56:48;97359.13;;;8.76;69.06
16094;BME280;8151;47.824;12.092;2023-02-20T07:59:18;97365.81;;;8.80;68.78
16094;BME280;8151;47.824;12.092;2023-02-20T08:01:47;97377.22;;;8.80;68.63
16094;BME280;8151;47.824;12.092;2023-02-20T08:04:16;97370.03;;;8.82;68.67
16094;BME280;8151;47.824;12.092;2023-02-20T08:06:45;97372.38;;;8.85;68.59
16094;BME280;8151;47.824;12.092;2023-02-20T08:09:14;97367.97;;;8.86;68.80
16094;BME280;8151;47.824;12.092;2023-02-20T08:11:42;97361.81;;;8.85;68.84
16094;BME280;8151;47.824;12.092;2023-02-20T08:14:12;97347.78;;;8.85;68.50
16094;BME280;8151;47.824;12.092;2023-02-20T08:16:41;97355.84;;;8.83;68.21
16094;BME280;8151;47.824;12.092;2023-02-20T08:19:10;97340.13;;;8.82;68.25
16094;BME280;8151;47.824;12.092;2023-02-20T08:21:38;97346.09;;;8.84;68.64
16094;BME280;8151;47.824;12.092;2023-02-20T08:24:10;97345.03;;;8.86;68.36
16094;BME280;8151;47.824;12.092;2023-02-20T08:26:42;97330.72;;;8.89;68.75
16094;BME280;8151;47.824;12.092;2023-02-20T08:29:11;97326.13;;;8.91;68.38
16094;BME280;8151;47.824;12.092;2023-02-20T08:31:40;97318.91;;;8.93;68.54
16094;BME280;8151;47.824;12.092;2023-02-20T08:34:09;97324.78;;;8.97;67.95
16094;BME280;8151;47.824;12.092;2023-02-20T08:36:39;97324.34;;;9.01;68.41
16094;BME280;8151;47.824;12.092;2023-02-20T08:39:07;97316.88;;;9.06;68.01
16094;BME280;8151;47.824;12.092;2023-02-20T08:41:42;97322.47;;;9.13;67.75
16094;BME280;8151;47.824;12.092;2023-02-20T08:44:11;97318.28;;;9.20;67.62
16094;BME280;8151;47.824;12.092;2023-02-20T08:46:45;97313.44;;;9.25;67.98
16094;BME280;8151;47.824;12.092;2023-02-20T08:49:13;97311.25;;;9.31;68.01
16094;BME280;8151;47.824;12.092;2023-02-20T08:51:44;97302.91;;;9.35;67.35
16094;BME280;8151;47.824;12.092;2023-02-20T08:54:13;97304.41;;;9.38;67.86
16094;BME280;8151;47.824;12.092;2023-02-20T08:56:43;97302.22;;;9.43;67.97
16094;BME280;8151;47.824;12.092;2023-02-20T08:59:12;97302.06;;;9.44;67.38
16094;BME280;8151;47.824;12.092;2023-02-20T09:01:40;97300.13;;;9.46;67.45
16094;BME280;8151;47.824;12.092;2023-02-20T09:04:09;97296.38;;;9.49;67.65
16094;BME280;8151;47.824;12.092;2023-02-20T09:06:38;97293.47;;;9.52;66.96
16094;BME280;8151;47.824;12.092;2023-02-20T09:09:07;97295.94;;;9.54;67.24
16094;BME280;8151;47.824;12.092;2023-02-20T09:11:35;97293.16;;;9.55;67.02
16094;BME280;8151;47.824;12.092;2023-02-20T09:14:05;97279.69;;;9.58;66.95
16094;BME280;8151;47.824;12.092;2023-02-20T09:16:34;97270.63;;;9.61;66.93
16094;BME280;8151;47.824;12.092;2023-02-20T09:19:02;97285.25;;;9.65;66.20
16094;BME280;8151;47.824;12.092;2023-02-20T09:21:33;97284.97;;;9.68;66.31
16094;BME280;8151;47.824;12.092;2023-02-20T09:24:04;97263.69;;;9.70;66.17
16094;BME280;8151;47.824;12.092;2023-02-20T09:26:35;97264.41;;;9.72;66.52
16094;BME280;8151;47.824;12.092;2023-02-20T09:29:05;97268.56;;;9.74;66.22
16094;BME280;8151;47.824;12.092;2023-02-20T09:31:33;97255.06;;;9.77;66.22
16094;BME280;8151;47.824;12.092;2023-02-20T09:34:02;97247.97;;;9.78;66.32
16094;BME280;8151;47.824;12.092;2023-02-20T09:36:31;97238.34;;;9.77;66.19
16094;BME280;8151;47.824;12.092;2023-02-20T09:39:03;97231.28;;;9.77;66.65
16094;BME280;8151;47.824;12.092;2023-02-20T09:41:41;97237.13;;;9.81;66.13
16094;BME280;8151;47.824;12.092;2023-02-20T09:44:18;97233.03;;;9.86;65.56
16094;BME280;8151;47.824;12.092;2023-02-20T09:46:51;97226.38;;;9.92;65.59
16094;BME280;8151;47.824;12.092;2023-02-20T09:49:23;97220.25;;;9.92;66.21
16094;BME280;8151;47.824;12.092;2023-02-20T09:51:55;97227.50;;;9.90;65.50
16094;BME280;8151;47.824;12.092;2023-02-20T09:54:30;97234.97;;;9.94;65.84
16094;BME280;8151;47.824;12.092;2023-02-20T09:57:02;97231.34;;;10.05;65.48
16094;BME280;8151;47.824;12.092;2023-02-20T09:59:38;97224.22;;;10.15;65.70
16094;BME280;8151;47.824;12.092;2023-02-20T10:02:15;97227.00;;;10.33;65.09
16094;BME280;8151;47.824;12.092;2023-02-20T10:04:47;97219.94;;;10.52;65.04
16094;BME280;8151;47.824;12.092;2023-02-20T10:07:29;97223.88;;;10.66;64.98
16094;BME280;8151;47.824;12.092;2023-02-20T10:09:58;97219.53;;;10.74;64.91
16094;BME280;8151;47.824;12.092;2023-02-20T10:12:32;97214.63;;;10.79;64.81
16094;BME280;8151;47.824;12.092;2023-02-20T10:15:13;97213.19;;;10.85;64.47
16094;BME280;8151;47.824;12.092;2023-02-20T10:17:56;97213.81;;;10.97;64.38
16094;BME280;8151;47.824;12.092;2023-02-20T10:20:35;97218.91;;;11.08;63.87
16094;BME280;8151;47.824;12.092;2023-02-20T10:23:10;97214.34;;;11.18;64.01
16094;BME280;8151;47.824;12.092;2023-02-20T10:25:47;97210.81;;;11.28;63.62
16094;BME280;8151;47.824;12.092;2023-02-20T10:28:18;97194.00;;;11.37;64.14
16094;BME280;8151;47.824;12.092;2023-02-20T10:30:55;97195.88;;;11.45;63.35
16094;BME280;8151;47.824;12.092;2023-02-20T10:33:27;97179.22;;;11.52;63.49
16094;BME280;8151;47.824;12.092;2023-02-20T10:36:01;97183.22;;;11.56;63.24
16094;BME280;8151;47.824;12.092;2023-02-20T10:38:40;97181.91;;;11.60;63.36
16094;BME280;8151;47.824;12.092;2023-02-20T10:41:16;97172.38;;;11.68;62.91
16094;BME280;8151;47.824;12.092;2023-02-20T10:43:49;97175.06;;;11.76;63.02
16094;BME280;8151;47.824;12.092;2023-02-20T10:46:25;97154.56;;;11.86;62.94
16094;BME280;8151;47.824;12.092;2023-02-20T10:49:17;97150.34;;;11.93;63.03
16094;BME280;8151;47.824;12.092;2023-02-20T10:51:49;97144.75;;;11.96;63.02
16094;BME280;8151;47.824;12.092;2023-02-20T10:54:22;97144.94;;;12.03;62.86
16094;BME280;8151;47.824;12.092;2023-02-20T10:56:58;97140.31;;;12.13;62.72
16094;BME280;8151;47.824;12.092;2023-02-20T10:59:30;97140.41;;;12.30;62.53
16094;BME280;8151;47.824;12.092;2023-02-20T11:02:09;97138.00;;;12.45;62.03
16094;BME280;8151;47.824;12.092;2023-02-20T11:04:47;97135.00;;;12.56;61.66
16094;BME280;8151;47.824;12.092;2023-02-20T11:07:18;97135.06;;;12.64;61.56
16094;BME280;8151;47.824;12.092;2023-02-20T11:09:48;97136.41;;;12.76;61.32
16094;BME280;8151;47.824;12.092;2023-02-20T11:12:23;97127.31;;;12.87;61.06
16094;BME280;8151;47.824;12.092;2023-02-20T11:14:55;97128.81;;;12.98;60.90
16094;BME280;8151;47.824;12.092;2023-02-20T11:17:26;97119.50;;;13.02;60.79
16094;BME280;8151;47.824;12.092;2023-02-20T11:19:58;97116.38;;;13.07;60.60
16094;BME280;8151;47.824;12.092;2023-02-20T11:22:41;97107.06;;;13.11;60.21
16094;BME280;8151;47.824;12.092;2023-02-20T11:25:15;97095.91;;;13.24;60.54
16094;BME280;8151;47.824;12.092;2023-02-20T11:27:47;97091.63;;;13.31;60.56
16094;BME280;8151;47.824;12.092;2023-02-20T11:30:28;97092.28;;;13.41;60.35
16094;BME280;8151;47.824;12.092;2023-02-20T11:33:01;97084.47;;;13.56;60.08
16094;BME280;8151;47.824;12.092;2023-02-20T11:35:33;97080.28;;;13.70;60.08
16094;BME280;8151;47.824;12.092;2023-02-20T11:38:25;97074.75;;;13.79;59.29
16094;BME280;8151;47.824;12.092;2023-02-20T11:41:20;97074.56;;;13.89;58.79
16094;BME280;8151;47.824;12.092;2023-02-20T11:44:17;97075.88;;;14.02;58.49
16094;BME280;8151;47.824;12.092;2023-02-20T11:46:48;97067.31;;;14.14;59.13
16094;BME280;8151;47.824;12.092;2023-02-20T11:49:36;97068.56;;;14.27;58.62
16094;BME280;8151;47.824;12.092;2023-02-20T11:52:08;97053.41;;;14.35;58.49
16094;BME280;8151;47.824;12.092;2023-02-20T11:54:37;97057.19;;;14.41;58.24
16094;BME280;8151;47.824;12.092;2023-02-20T11:57:18;97054.66;;;14.48;57.37
16094;BME280;8151;47.824;12.092;2023-02-20T11:59:48;97050.28;;;14.55;57.80
16094;BME280;8151;47.824;12.092;2023-02-20T12:02:27;97050.81;;;14.59;57.22
16094;BME280;8151;47.824;12.092;2023-02-20T12:05:17;97043.56;;;14.67;56.49
16094;BME280;8151;47.824;12.092;2023-02-20T12:07:57;97041.38;;;14.71;57.03
16094;BME280;8151;47.824;12.092;2023-02-20T12:10:38;97038.38;;;14.74;56.65
16094;BME280;8151;47.824;12.092;2023-02-20T12:13:12;97045.09;;;14.85;56.90
16094;BME280;8151;47.824;12.092;2023-02-20T12:15:41;97041.38;;;14.94;56.81
16094;BME280;8151;47.824;12.092;2023-02-20T12:21:19;97024.16;;;15.05;55.70
16094;BME280;8151;47.824;12.092;2023-02-20T12:24:01;97024.88;;;15.13;55.17
16094;BME280;8151;47.824;12.092;2023-02-20T12:26:41;97018.13;;;15.26;55.31
16094;BME280;8151;47.824;12.092;2023-02-20T12:29:23;97012.88;;;15.32;55.05
16094;BME280;8151;47.824;12.092;2023-02-20T12:32:08;97007.28;;;15.42;54.86
16094;BME280;8151;47.824;12.092;2023-02-20T12:34:56;97001.22;;;15.48;54.53
16094;BME280;8151;47.824;12.092;2023-02-20T12:37:35;97006.19;;;15.51;54.60
16094;BME280;8151;47.824;12.092;2023-02-20T12:40:21;97000.47;;;15.54;53.78
16094;BME280;8151;47.824;12.092;2023-02-20T12:42:58;96987.41;;;15.60;54.11
16094;BME280;8151;47.824;12.092;2023-02-20T12:45:32;96976.66;;;15.68;53.87
16094;BME280;8151;47.824;12.092;2023-02-20T12:48:21;96973.78;;;15.69;53.32
16094;BME280;8151;47.824;12.092;2023-02-20T12:51:08;96967.34;;;15.64;53.50
16094;BME280;8151;47.824;12.092;2023-02-20T12:53:58;96950.88;;;15.60;53.29
16094;BME280;8151;47.824;12.092;2023-02-20T12:56:47;96950.34;;;15.65;53.64
16094;BME280;8151;47.824;12.092;2023-02-20T12:59:25;96943.81;;;15.67;53.61
16094;BME280;8151;47.824;12.092;2023-02-20T13:01:59;96940.97;;;15.69;53.56
16094;BME280;8151;47.824;12.092;2023-02-20T13:04:37;96942.41;;;15.71;53.40
16094;BME280;8151;47.824;12.092;2023-02-20T13:07:14;96939.75;;;15.71;53.27
16094;BME280;8151;47.824;12.092;2023-02-20T13:09:54;96929.09;;;15.71;52.72
16094;BME280;8151;47.824;12.092;2023-02-20T13:12:24;96930.13;;;15.70;53.41
16094;BME280;8151;47.824;12.092;2023-02-20T13:14:59;96925.78;;;15.69;52.80
16094;BME280;8151;47.824;12.092;2023-02-20T13:17:44;96923.94;;;15.70;52.73
16094;BME280;8151;47.824;12.092;2023-02-20T13:20:18;96913.75;;;15.73;52.27
16094;BME280;8151;47.824;12.092;2023-02-20T13:23:00;96909.31;;;15.81;52.06
16094;BME280;8151;47.824;12.092;2023-02-20T13:25:42;96914.19;;;15.92;51.33
16094;BME280;8151;47.824;12.092;2023-02-20T13:28:33;96909.16;;;16.04;50.74
16094;BME280;8151;47.824;12.092;2023-02-20T13:31:11;96897.72;;;16.10;51.31
16094;BME280;8151;47.824;12.092;2023-02-20T13:33:41;96901.28;;;16.17;51.28
16094;BME280;8151;47.824;12.092;2023-02-20T13:36:36;96894.16;;;16.24;50.32
16094;BME280;8151;47.824;12.092;2023-02-20T13:42:39;96886.47;;;16.36;50.25
16094;BME280;8151;47.824;12.092;2023-02-20T13:45:35;96878.34;;;16.44;49.94
16094;BME280;8151;47.824;12.092;2023-02-20T13:48:17;96870.75;;;16.48;50.20
16094;BME280;8151;47.824;12.092;2023-02-20T13:50:45;96878.00;;;16.54;50.22
16094;BME280;8151;47.824;12.092;2023-02-20T13:53:15;96873.72;;;16.60;49.84
16094;BME280;8151;47.824;12.092;2023-02-20T13:55:43;96866.56;;;16.67;49.54